sensor_id;sensor_type;location;lat;lon;timestamp;pressure;altitude;pressure_sealevel;temperature;humidity
36380;BME280;22411;53.016;18.632;2023-05-03T00:00:22;101545.53;;;9.36;100.00
36380;BME280;22411;53.016;18.632;2023-05-03T00:03:09;101548.63;;;9.26;100.00
36380;BME280;22411;53.016;18.632;2023-05-03T00:05:54;101548.72;;;9.24;100.00
36380;BME280;22411;53.016;18.632;2023-05-03T00:08:38;101554.41;;;9.12;100.00
36380;BME280;22411;53.016;18.632;2023-05-03T00:11:22;101552.69;;;8.94;100.00
36380;BME280;22411;53.016;18.632;2023-05-03T00:14:06;101548.31;;;8.75;100.00
36380;BME280;22411;53.016;18.632;2023-05-03T00:16:50;101546.59;;;8.76;100.00
36380;BME280;22411;53.016;18.632;2023-05-03T00:19:35;101547.44;;;8.76;100.00
36380;BME280;22411;53.016;18.632;2023-05-03T00:22:20;101551.13;;;8.71;100.00
36380;BME280;22411;53.016;18.632;2023-05-03T00:25:08;101551.38;;;8.64;100.00
36380;BME280;22411;53.016;18.632;2023-05-03T00:27:53;101557.47;;;8.43;100.00
36380;BME280;22411;53.016;18.632;2023-05-03T00:30:37;101557.13;;;8.30;100.00
36380;BME280;22411;53.016;18.632;2023-05-03T00:33:24;101559.97;;;8.24;100.00
36380;BME280;22411;53.016;18.632;2023-05-03T00:36:09;101566.94;;;8.22;100.00
36380;BME280;22411;53.016;18.632;2023-05-03T00:38:54;101573.72;;;8.25;100.00
36380;BME280;22411;53.016;18.632;2023-05-03T00:41:38;101572.34;;;8.16;100.00
36380;BME280;22411;53.016;18.632;2023-05-03T00:44:22;101568.25;;;8.12;100.00
36380;BME280;22411;53.016;18.632;2023-05-03T00:47:07;101571.19;;;8.03;100.00
36380;BME280;22411;53.016;18.632;2023-05-03T00:49:52;101567.16;;;7.96;100.00
36380;BME280;22411;53.016;18.632;2023-05-03T00:52:37;101563.75;;;7.95;100.00
36380;BME280;22411;53.016;18.632;2023-05-03T00:55:21;101563.94;;;7.91;100.00
36380;BME280;22411;53.016;18.632;2023-05-03T00:58:06;101572.06;;;7.81;100.00
36380;BME280;22411;53.016;18.632;2023-05-03T01:00:52;101578.91;;;7.82;100.00
36380;BME280;22411;53.016;18.632;2023-05-03T01:03:38;101571.59;;;7.72;100.00
36380;BME280;22411;53.016;18.632;2023-05-03T01:09:30;101567.13;;;7.53;100.00
36380;BME280;22411;53.016;18.632;2023-05-03T01:15:48;101576.50;;;7.34;100.00
36380;BME280;22411;53.016;18.632;2023-05-03T01:18:38;101568.75;;;7.34;100.00
36380;BME280;22411;53.016;18.632;2023-05-03T01:21:24;101580.81;;;7.33;100.00
36380;BME280;22411;53.016;18.632;2023-05-03T01:24:21;101576.59;;;7.31;100.00
36380;BME280;22411;53.016;18.632;2023-05-03T01:27:13;101575.00;;;7.28;100.00
36380;BME280;22411;53.016;18.632;2023-05-03T01:30:19;101578.50;;;7.26;100.00
36380;BME280;22411;53.016;18.632;2023-05-03T01:33:23;101582.09;;;7.22;100.00
36380;BME280;22411;53.016;18.632;2023-05-03T01:36:25;101579.72;;;7.17;100.00
36380;BME280;22411;53.016;18.632;2023-05-03T01:39:20;101581.72;;;7.09;100.00
36380;BME280;22411;53.016;18.632;2023-05-03T01:42:05;101581.22;;;6.99;100.00
36380;BME280;22411;53.016;18.632;2023-05-03T01:44:52;101580.31;;;7.00;100.00
36380;BME280;22411;53.016;18.632;2023-05-03T01:47:37;101580.69;;;6.90;100.00
36380;BME280;22411;53.016;18.632;2023-05-03T01:50:21;101588.03;;;6.77;100.00
36380;BME280;22411;53.016;18.632;2023-05-03T01:53:07;101591.88;;;6.65;100.00
36380;BME280;22411;53.016;18.632;2023-05-03T01:55:51;101596.44;;;6.57;100.00
36380;BME280;22411;53.016;18.632;2023-05-03T01:58:35;101593.94;;;6.55;100.00
36380;BME280;22411;53.016;18.632;2023-05-03T02:01:19;101592.44;;;6.48;100.00
36380;BME280;22411;53.016;18.632;2023-05-03T02:04:03;101585.00;;;6.41;100.00
36380;BME280;22411;53.016;18.632;2023-05-03T02:06:47;101589.38;;;6.39;100.00
36380;BME280;22411;53.016;18.632;2023-05-03T02:09:31;101586.97;;;6.33;100.00
36380;BME280;22411;53.016;18.632;2023-05-03T02:12:16;101588.03;;;6.27;100.00
36380;BME280;22411;53.016;18.632;2023-05-03T02:15:00;101584.59;;;6.26;100.00
36380;BME280;22411;53.016;18.632;2023-05-03T02:17:44;101586.19;;;6.31;100.00
36380;BME280;22411;53.016;18.632;2023-05-03T02:20:30;101588.03;;;6.27;100.00
36380;BME280;22411;53.016;18.632;2023-05-03T02:23:19;101584.50;;;6.29;100.00
36380;BME280;22411;53.016;18.632;2023-05-03T02:26:04;101588.88;;;6.27;100.00
36380;BME280;22411;53.016;18.632;2023-05-03T02:28:48;101583.00;;;6.24;100.00
36380;BME280;22411;53.016;18.632;2023-05-03T02:31:34;101586.56;;;6.20;100.00
36380;BME280;22411;53.016;18.632;2023-05-03T02:34:18;101577.94;;;6.21;100.00
36380;BME280;22411;53.016;18.632;2023-05-03T02:37:02;101586.91;;;6.09;100.00
36380;BME280;22411;53.016;18.632;2023-05-03T02:39:47;101588.97;;;5.98;100.00
36380;BME280;22411;53.016;18.632;2023-05-03T02:42:31;101589.19;;;5.90;100.00
36380;BME280;22411;53.016;18.632;2023-05-03T02:45:15;101589.44;;;5.83;100.00
36380;BME280;22411;53.016;18.632;2023-05-03T02:47:59;101595.53;;;5.80;100.00
36380;BME280;22411;53.016;18.632;2023-05-03T02:50:44;101593.03;;;5.77;100.00
36380;BME280;22411;53.016;18.632;2023-05-03T02:53:29;101595.63;;;5.77;100.00
36380;BME280;22411;53.016;18.632;2023-05-03T02:56:14;101598.13;;;5.78;100.00
36380;BME280;22411;53.016;18.632;2023-05-03T02:58:58;101604.13;;;5.79;100.00
36380;BME280;22411;53.016;18.632;2023-05-03T03:01:42;101599.09;;;5.74;100.00
36380;BME280;22411;53.016;18.632;2023-05-03T03:04:26;101600.13;;;5.70;100.00
36380;BME280;22411;53.016;18.632;2023-05-03T03:07:11;101602.69;;;5.70;100.00
36380;BME280;22411;53.016;18.632;2023-05-03T03:09:54;101600.19;;;5.67;100.00
36380;BME280;22411;53.016;18.632;2023-05-03T03:12:39;101603.59;;;5.68;100.00
36380;BME280;22411;53.016;18.632;2023-05-03T03:15:24;101603.59;;;5.68;100.00
36380;BME280;22411;53.016;18.632;2023-05-03T03:18:07;101606.25;;;5.66;100.00
36380;BME280;22411;53.016;18.632;2023-05-03T03:20:52;101603.03;;;5.58;100.00
36380;BME280;22411;53.016;18.632;2023-05-03T03:23:36;101609.06;;;5.57;100.00
36380;BME280;22411;53.016;18.632;2023-05-03T03:26:20;101608.19;;;5.58;100.00
36380;BME280;22411;53.016;18.632;2023-05-03T03:29:04;101611.53;;;5.62;100.00
36380;BME280;22411;53.016;18.632;2023-05-03T03:31:49;101610.69;;;5.61;100.00
36380;BME280;22411;53.016;18.632;2023-05-03T03:34:33;101612.31;;;5.64;100.00
36380;BME280;22411;53.016;18.632;2023-05-03T03:37:18;101614.00;;;5.65;100.00
36380;BME280;22411;53.016;18.632;2023-05-03T03:40:05;101617.44;;;5.64;100.00
36380;BME280;22411;53.016;18.632;2023-05-03T03:42:50;101621.72;;;5.65;100.00
36380;BME280;22411;53.016;18.632;2023-05-03T03:45:34;101619.19;;;5.63;100.00
36380;BME280;22411;53.016;18.632;2023-05-03T03:48:18;101621.63;;;5.68;100.00
36380;BME280;22411;53.016;18.632;2023-05-03T03:51:02;101621.56;;;5.69;100.00
36380;BME280;22411;53.016;18.632;2023-05-03T03:53:46;101624.19;;;5.68;100.00
36380;BME280;22411;53.016;18.632;2023-05-03T03:56:30;101627.59;;;5.68;100.00
36380;BME280;22411;53.016;18.632;2023-05-03T03:59:14;101628.41;;;5.70;100.00
36380;BME280;22411;53.016;18.632;2023-05-03T04:01:58;101621.53;;;5.71;100.00
36380;BME280;22411;53.016;18.632;2023-05-03T04:04:42;101627.56;;;5.70;100.00
36380;BME280;22411;53.016;18.632;2023-05-03T04:07:27;101638.56;;;5.75;100.00
36380;BME280;22411;53.016;18.632;2023-05-03T04:10:11;101631.84;;;5.69;100.00
36380;BME280;22411;53.016;18.632;2023-05-03T04:12:56;101642.75;;;5.77;100.00
36380;BME280;22411;53.016;18.632;2023-05-03T04:15:40;101637.75;;;5.73;100.00
36380;BME280;22411;53.016;18.632;2023-05-03T04:18:24;101647.16;;;5.74;100.00
36380;BME280;22411;53.016;18.632;2023-05-03T04:21:09;101648.03;;;5.73;100.00
36380;BME280;22411;53.016;18.632;2023-05-03T04:23:54;101653.31;;;5.70;100.00
36380;BME280;22411;53.016;18.632;2023-05-03T04:26:38;101661.66;;;5.76;100.00
36380;BME280;22411;53.016;18.632;2023-05-03T04:29:23;101662.56;;;5.75;100.00
36380;BME280;22411;53.016;18.632;2023-05-03T04:32:08;101659.09;;;5.76;100.00
36380;BME280;22411;53.016;18.632;2023-05-03T04:34:52;101663.28;;;5.79;100.00
36380;BME280;22411;53.016;18.632;2023-05-03T04:37:40;101665.88;;;5.79;100.00
36380;BME280;22411;53.016;18.632;2023-05-03T04:40:25;101672.53;;;5.86;100.00
36380;BME280;22411;53.016;18.632;2023-05-03T04:43:09;101668.94;;;5.90;100.00
36380;BME280;22411;53.016;18.632;2023-05-03T04:45:54;101667.94;;;5.97;100.00
36380;BME280;22411;53.016;18.632;2023-05-03T04:48:38;101673.81;;;6.01;100.00
36380;BME280;22411;53.016;18.632;2023-05-03T04:51:22;101685.75;;;6.03;100.00
36380;BME280;22411;53.016;18.632;2023-05-03T04:54:06;101678.09;;;6.02;100.00
36380;BME280;22411;53.016;18.632;2023-05-03T04:56:52;101689.06;;;6.07;100.00
36380;BME280;22411;53.016;18.632;2023-05-03T04:59:36;101684.84;;;6.05;100.00
36380;BME280;22411;53.016;18.632;2023-05-03T05:02:20;101692.25;;;6.15;100.00
36380;BME280;22411;53.016;18.632;2023-05-03T05:05:06;101696.47;;;6.18;100.00
36380;BME280;22411;53.016;18.632;2023-05-03T05:07:50;101694.63;;;6.21;100.00
36380;BME280;22411;53.016;18.632;2023-05-03T05:10:39;101704.97;;;6.20;100.00
36380;BME280;22411;53.016;18.632;2023-05-03T05:13:23;101701.22;;;6.30;100.00
36380;BME280;22411;53.016;18.632;2023-05-03T05:16:07;101708.19;;;6.26;100.00
36380;BME280;22411;53.016;18.632;2023-05-03T05:18:52;101708.94;;;6.30;100.00
36380;BME280;22411;53.016;18.632;2023-05-03T05:21:36;101708.66;;;6.39;100.00
36380;BME280;22411;53.016;18.632;2023-05-03T05:24:20;101715.63;;;6.36;100.00
36380;BME280;22411;53.016;18.632;2023-05-03T05:27:04;101715.41;;;6.43;100.00
36380;BME280;22411;53.016;18.632;2023-05-03T05:29:50;101715.41;;;6.43;100.00
36380;BME280;22411;53.016;18.632;2023-05-03T05:32:34;101713.47;;;6.50;100.00
36380;BME280;22411;53.016;18.632;2023-05-03T05:35:19;101710.84;;;6.51;100.00
36380;BME280;22411;53.016;18.632;2023-05-03T05:38:04;101712.97;;;6.65;100.00
36380;BME280;22411;53.016;18.632;2023-05-03T05:40:49;101721.47;;;6.67;100.00
36380;BME280;22411;53.016;18.632;2023-05-03T05:43:33;101721.19;;;6.76;100.00
36380;BME280;22411;53.016;18.632;2023-05-03T05:46:17;101721.75;;;6.85;100.00
36380;BME280;22411;53.016;18.632;2023-05-03T05:49:04;101732.50;;;6.97;100.00
36380;BME280;22411;53.016;18.632;2023-05-03T05:51:49;101725.13;;;7.12;100.00
36380;BME280;22411;53.016;18.632;2023-05-03T05:54:33;101724.09;;;7.17;100.00
36380;BME280;22411;53.016;18.632;2023-05-03T05:57:20;101730.59;;;7.27;100.00
36380;BME280;22411;53.016;18.632;2023-05-03T06:00:05;101724.03;;;7.44;100.00
36380;BME280;22411;53.016;18.632;2023-05-03T06:02:57;101730.31;;;7.60;100.00
36380;BME280;22411;53.016;18.632;2023-05-03T06:05:41;101737.00;;;7.64;100.00
36380;BME280;22411;53.016;18.632;2023-05-03T06:08:26;101735.06;;;7.71;100.00
36380;BME280;22411;53.016;18.632;2023-05-03T06:11:10;101743.19;;;7.83;100.00
36380;BME280;22411;53.016;18.632;2023-05-03T06:13:57;101746.44;;;7.89;100.00
36380;BME280;22411;53.016;18.632;2023-05-03T06:16:41;101748.75;;;7.96;100.00
36380;BME280;22411;53.016;18.632;2023-05-03T06:19:25;101752.94;;;7.99;100.00
36380;BME280;22411;53.016;18.632;2023-05-03T06:22:10;101755.28;;;8.05;100.00
36380;BME280;22411;53.016;18.632;2023-05-03T06:24:54;101753.13;;;8.16;100.00
36380;BME280;22411;53.016;18.632;2023-05-03T06:27:39;101750.19;;;8.25;100.00
36380;BME280;22411;53.016;18.632;2023-05-03T06:30:23;101748.22;;;8.32;100.00
36380;BME280;22411;53.016;18.632;2023-05-03T06:33:11;101752.13;;;8.44;100.00
36380;BME280;22411;53.016;18.632;2023-05-03T06:35:57;101753.53;;;8.51;100.00
36380;BME280;22411;53.016;18.632;2023-05-03T06:38:42;101751.34;;;8.62;100.00
36380;BME280;22411;53.016;18.632;2023-05-03T06:41:26;101752.66;;;8.72;100.00
36380;BME280;22411;53.016;18.632;2023-05-03T06:44:11;101760.91;;;8.82;100.00
36380;BME280;22411;53.016;18.632;2023-05-03T06:46:55;101754.47;;;8.90;100.00
36380;BME280;22411;53.016;18.632;2023-05-03T06:49:39;101765.03;;;9.06;100.00
36380;BME280;22411;53.016;18.632;2023-05-03T06:52:24;101761.59;;;9.06;100.00
36380;BME280;22411;53.016;18.632;2023-05-03T06:55:08;101764.34;;;9.23;100.00
36380;BME280;22411;53.016;18.632;2023-05-03T06:57:52;101763.91;;;9.32;100.00
36380;BME280;22411;53.016;18.632;2023-05-03T07:00:37;101766.03;;;9.43;100.00
36380;BME280;22411;53.016;18.632;2023-05-03T07:03:23;101764.03;;;9.50;99.46
36380;BME280;22411;53.016;18.632;2023-05-03T07:06:07;101775.81;;;9.57;100.00
36380;BME280;22411;53.016;18.632;2023-05-03T07:08:52;101771.81;;;9.68;99.30
36380;BME280;22411;53.016;18.632;2023-05-03T07:11:37;101763.66;;;9.78;93.83
36380;BME280;22411;53.016;18.632;2023-05-03T07:14:23;101772.59;;;9.89;92.07
36380;BME280;22411;53.016;18.632;2023-05-03T07:17:08;101763.78;;;9.93;90.54
36380;BME280;22411;53.016;18.632;2023-05-03T07:19:53;101775.06;;;9.92;87.69
36380;BME280;22411;53.016;18.632;2023-05-03T07:22:37;101779.03;;;10.00;88.65
36380;BME280;22411;53.016;18.632;2023-05-03T07:25:21;101769.19;;;10.08;89.12
36380;BME280;22411;53.016;18.632;2023-05-03T07:28:05;101772.88;;;10.21;91.29
36380;BME280;22411;53.016;18.632;2023-05-03T07:30:50;101768.88;;;10.33;92.93
36380;BME280;22411;53.016;18.632;2023-05-03T07:33:35;101772.31;;;10.33;88.51
36380;BME280;22411;53.016;18.632;2023-05-03T07:36:20;101781.13;;;10.48;83.00
36380;BME280;22411;53.016;18.632;2023-05-03T07:39:04;101775.72;;;10.53;83.98
36380;BME280;22411;53.016;18.632;2023-05-03T07:41:49;101777.72;;;10.65;84.45
36380;BME280;22411;53.016;18.632;2023-05-03T07:44:33;101781.56;;;10.92;87.12
36380;BME280;22411;53.016;18.632;2023-05-03T07:47:18;101787.66;;;11.09;82.75
36380;BME280;22411;53.016;18.632;2023-05-03T07:50:03;101780.44;;;10.98;84.27
36380;BME280;22411;53.016;18.632;2023-05-03T07:52:48;101785.91;;;11.09;85.60
36380;BME280;22411;53.016;18.632;2023-05-03T07:55:35;101786.75;;;11.10;86.48
36380;BME280;22411;53.016;18.632;2023-05-03T07:58:21;101788.22;;;10.98;86.02
36380;BME280;22411;53.016;18.632;2023-05-03T08:01:05;101784.84;;;10.96;89.07
36380;BME280;22411;53.016;18.632;2023-05-03T08:03:49;101788.16;;;11.33;90.68
36380;BME280;22411;53.016;18.632;2023-05-03T08:06:33;101776.56;;;11.73;87.45
36380;BME280;22411;53.016;18.632;2023-05-03T08:09:19;101777.28;;;11.92;81.83
36380;BME280;22411;53.016;18.632;2023-05-03T08:12:03;101784.31;;;12.22;78.20
36380;BME280;22411;53.016;18.632;2023-05-03T08:14:47;101782.91;;;12.00;80.60
36380;BME280;22411;53.016;18.632;2023-05-03T08:17:39;101785.91;;;11.93;72.83
36380;BME280;22411;53.016;18.632;2023-05-03T08:20:23;101784.50;;;11.87;73.66
36380;BME280;22411;53.016;18.632;2023-05-03T08:23:10;101779.22;;;11.89;79.31
36380;BME280;22411;53.016;18.632;2023-05-03T08:25:54;101776.78;;;12.01;79.64
36380;BME280;22411;53.016;18.632;2023-05-03T08:28:39;101791.72;;;12.14;76.68
36380;BME280;22411;53.016;18.632;2023-05-03T08:31:23;101789.44;;;11.92;77.06
36380;BME280;22411;53.016;18.632;2023-05-03T08:34:08;101792.94;;;12.38;72.90
36380;BME280;22411;53.016;18.632;2023-05-03T08:36:53;101791.31;;;12.67;65.08
36380;BME280;22411;53.016;18.632;2023-05-03T08:39:38;101794.06;;;12.80;61.38
36380;BME280;22411;53.016;18.632;2023-05-03T08:42:22;101793.00;;;13.13;59.18
36380;BME280;22411;53.016;18.632;2023-05-03T08:45:12;101790.41;;;12.98;62.99
36380;BME280;22411;53.016;18.632;2023-05-03T08:47:58;101790.50;;;13.11;60.77
36380;BME280;22411;53.016;18.632;2023-05-03T08:50:44;101806.09;;;12.97;53.38
36380;BME280;22411;53.016;18.632;2023-05-03T08:53:31;101797.41;;;12.36;47.29
36380;BME280;22411;53.016;18.632;2023-05-03T08:56:29;101795.25;;;12.74;53.32
36380;BME280;22411;53.016;18.632;2023-05-03T08:59:16;101794.59;;;13.01;55.87
36380;BME280;22411;53.016;18.632;2023-05-03T09:02:00;101795.25;;;13.04;52.63
36380;BME280;22411;53.016;18.632;2023-05-03T09:04:44;101802.69;;;13.41;54.16
36380;BME280;22411;53.016;18.632;2023-05-03T09:07:29;101788.59;;;14.00;55.15
36380;BME280;22411;53.016;18.632;2023-05-03T09:10:22;101793.22;;;14.24;56.83
36380;BME280;22411;53.016;18.632;2023-05-03T09:13:10;101793.66;;;14.84;55.02
36380;BME280;22411;53.016;18.632;2023-05-03T09:15:55;101805.66;;;14.47;56.33
36380;BME280;22411;53.016;18.632;2023-05-03T09:18:40;101798.03;;;14.03;53.09
36380;BME280;22411;53.016;18.632;2023-05-03T09:21:28;101794.50;;;14.31;52.02
36380;BME280;22411;53.016;18.632;2023-05-03T09:24:18;101794.28;;;14.48;50.51
36380;BME280;22411;53.016;18.632;2023-05-03T09:27:22;101794.22;;;14.35;50.84
36380;BME280;22411;53.016;18.632;2023-05-03T09:30:17;101794.97;;;15.30;47.99
36380;BME280;22411;53.016;18.632;2023-05-03T09:33:02;101796.09;;;15.89;44.34
36380;BME280;22411;53.016;18.632;2023-05-03T09:35:58;101794.97;;;15.30;46.65
36380;BME280;22411;53.016;18.632;2023-05-03T09:38:43;101795.78;;;15.43;48.18
36380;BME280;22411;53.016;18.632;2023-05-03T09:41:29;101800.66;;;14.97;47.23
36380;BME280;22411;53.016;18.632;2023-05-03T09:44:13;101806.50;;;14.48;45.17
36380;BME280;22411;53.016;18.632;2023-05-03T09:47:05;101805.53;;;14.07;44.68
36380;BME280;22411;53.016;18.632;2023-05-03T09:49:49;101809.13;;;15.00;44.48
36380;BME280;22411;53.016;18.632;2023-05-03T09:52:34;101791.84;;;16.12;41.43
36380;BME280;22411;53.016;18.632;2023-05-03T09:55:18;101794.50;;;16.95;39.23
36380;BME280;22411;53.016;18.632;2023-05-03T09:58:03;101789.00;;;16.63;39.26
36380;BME280;22411;53.016;18.632;2023-05-03T10:00:51;101795.63;;;15.72;41.73
36380;BME280;22411;53.016;18.632;2023-05-03T10:03:40;101788.78;;;14.53;44.34
36380;BME280;22411;53.016;18.632;2023-05-03T10:06:29;101791.88;;;14.31;47.71
36380;BME280;22411;53.016;18.632;2023-05-03T10:12:06;101792.25;;;15.31;46.02
36380;BME280;22411;53.016;18.632;2023-05-03T10:14:52;101783.56;;;15.43;45.26
36380;BME280;22411;53.016;18.632;2023-05-03T10:17:38;101776.66;;;14.52;45.86
36380;BME280;22411;53.016;18.632;2023-05-03T10:20:34;101780.56;;;14.18;44.87
36380;BME280;22411;53.016;18.632;2023-05-03T10:23:21;101787.53;;;14.17;45.80
36380;BME280;22411;53.016;18.632;2023-05-03T10:28:50;101773.84;;;15.84;43.09
36380;BME280;22411;53.016;18.632;2023-05-03T10:31:47;101774.81;;;16.79;39.89
36380;BME280;22411;53.016;18.632;2023-05-03T10:34:33;101779.25;;;15.81;41.01
36380;BME280;22411;53.016;18.632;2023-05-03T10:37:17;101769.38;;;16.34;38.32
36380;BME280;22411;53.016;18.632;2023-05-03T10:40:20;101779.72;;;16.59;37.08
36380;BME280;22411;53.016;18.632;2023-05-03T10:43:05;101775.75;;;17.69;35.79
36380;BME280;22411;53.016;18.632;2023-05-03T10:45:49;101778.19;;;18.59;33.61
36380;BME280;22411;53.016;18.632;2023-05-03T10:48:34;101774.34;;;17.76;31.33
36380;BME280;22411;53.016;18.632;2023-05-03T10:54:14;101771.81;;;16.48;34.77
36380;BME280;22411;53.016;18.632;2023-05-03T10:56:59;101777.22;;;16.58;33.24
36380;BME280;22411;53.016;18.632;2023-05-03T10:59:46;101785.50;;;16.76;33.81
36380;BME280;22411;53.016;18.632;2023-05-03T11:02:35;101782.38;;;16.70;35.30
36380;BME280;22411;53.016;18.632;2023-05-03T11:05:22;101771.84;;;17.41;35.23
36380;BME280;22411;53.016;18.632;2023-05-03T11:08:10;101781.38;;;17.87;33.51
36380;BME280;22411;53.016;18.632;2023-05-03T11:10:57;101792.66;;;17.20;29.89
36380;BME280;22411;53.016;18.632;2023-05-03T11:13:42;101787.91;;;17.47;30.58
36380;BME280;22411;53.016;18.632;2023-05-03T11:16:27;101792.56;;;18.43;30.34
36380;BME280;22411;53.016;18.632;2023-05-03T11:19:12;101795.13;;;18.22;29.93
36380;BME280;22411;53.016;18.632;2023-05-03T11:21:57;101785.44;;;18.34;30.31
36380;BME280;22411;53.016;18.632;2023-05-03T11:24:42;101797.09;;;19.05;29.52
36380;BME280;22411;53.016;18.632;2023-05-03T11:27:43;101795.13;;;19.28;30.07
36380;BME280;22411;53.016;18.632;2023-05-03T11:30:27;101790.63;;;18.13;32.11
36380;BME280;22411;53.016;18.632;2023-05-03T11:33:12;101787.22;;;17.79;32.76
36380;BME280;22411;53.016;18.632;2023-05-03T11:35:56;101788.47;;;17.29;32.29
36380;BME280;22411;53.016;18.632;2023-05-03T11:38:41;101789.69;;;17.24;32.21
36380;BME280;22411;53.016;18.632;2023-05-03T11:41:25;101790.06;;;17.76;31.53
36380;BME280;22411;53.016;18.632;2023-05-03T11:44:10;101786.47;;;17.66;32.29
36380;BME280;22411;53.016;18.632;2023-05-03T11:46:55;101799.09;;;16.57;35.47
36380;BME280;22411;53.016;18.632;2023-05-03T11:49:40;101794.72;;;15.97;36.07
36380;BME280;22411;53.016;18.632;2023-05-03T11:52:25;101794.09;;;15.93;35.72
36380;BME280;22411;53.016;18.632;2023-05-03T11:55:10;101794.19;;;16.04;35.22
36380;BME280;22411;53.016;18.632;2023-05-03T11:57:55;101790.06;;;15.51;35.72
36380;BME280;22411;53.016;18.632;2023-05-03T12:00:47;101784.50;;;15.81;36.99
36380;BME280;22411;53.016;18.632;2023-05-03T12:03:32;101784.56;;;17.34;34.85
36380;BME280;22411;53.016;18.632;2023-05-03T12:06:24;101786.72;;;18.83;31.75
36380;BME280;22411;53.016;18.632;2023-05-03T12:09:13;101787.72;;;17.73;31.40
36380;BME280;22411;53.016;18.632;2023-05-03T12:12:00;101789.91;;;17.10;32.14
36380;BME280;22411;53.016;18.632;2023-05-03T12:14:59;101790.69;;;17.80;31.57
36380;BME280;22411;53.016;18.632;2023-05-03T12:17:44;101792.78;;;18.08;29.47
36380;BME280;22411;53.016;18.632;2023-05-03T12:20:29;101786.66;;;18.19;29.49
36380;BME280;22411;53.016;18.632;2023-05-03T12:23:16;101789.84;;;18.34;29.14
36380;BME280;22411;53.016;18.632;2023-05-03T12:26:00;101791.84;;;18.09;29.93
36380;BME280;22411;53.016;18.632;2023-05-03T12:28:47;101786.50;;;17.99;29.94
36380;BME280;22411;53.016;18.632;2023-05-03T12:31:32;101793.97;;;17.70;30.09
36380;BME280;22411;53.016;18.632;2023-05-03T12:34:16;101785.22;;;16.43;32.55
36380;BME280;22411;53.016;18.632;2023-05-03T12:37:00;101784.78;;;16.26;33.67
36380;BME280;22411;53.016;18.632;2023-05-03T12:39:45;101777.84;;;16.37;33.99
36380;BME280;22411;53.016;18.632;2023-05-03T12:42:30;101777.84;;;16.37;33.46
36380;BME280;22411;53.016;18.632;2023-05-03T12:45:14;101784.03;;;16.00;34.46
36380;BME280;22411;53.016;18.632;2023-05-03T12:47:58;101785.66;;;15.38;35.47
36380;BME280;22411;53.016;18.632;2023-05-03T12:50:42;101785.03;;;15.09;37.37
36380;BME280;22411;53.016;18.632;2023-05-03T12:53:26;101778.66;;;15.64;36.30
36380;BME280;22411;53.016;18.632;2023-05-03T12:56:10;101780.91;;;15.94;35.04
36380;BME280;22411;53.016;18.632;2023-05-03T12:58:55;101780.44;;;16.13;34.42
36380;BME280;22411;53.016;18.632;2023-05-03T13:01:39;101789.16;;;17.08;33.11
36380;BME280;22411;53.016;18.632;2023-05-03T13:04:23;101777.50;;;17.12;31.58
36380;BME280;22411;53.016;18.632;2023-05-03T13:07:07;101773.09;;;17.02;31.17
36380;BME280;22411;53.016;18.632;2023-05-03T13:09:57;101770.88;;;17.31;31.83
36380;BME280;22411;53.016;18.632;2023-05-03T13:12:42;101777.03;;;17.18;31.36
36380;BME280;22411;53.016;18.632;2023-05-03T13:15:26;101769.09;;;17.76;31.25
36380;BME280;22411;53.016;18.632;2023-05-03T13:18:11;101779.34;;;17.90;30.75
36380;BME280;22411;53.016;18.632;2023-05-03T13:20:57;101773.72;;;18.06;30.30
36380;BME280;22411;53.016;18.632;2023-05-03T13:23:41;101766.69;;;18.71;29.00
36380;BME280;22411;53.016;18.632;2023-05-03T13:26:25;101765.03;;;18.91;28.59
36380;BME280;22411;53.016;18.632;2023-05-03T13:29:09;101780.13;;;18.24;30.61
36380;BME280;22411;53.016;18.632;2023-05-03T13:31:54;101761.28;;;16.85;33.18
36380;BME280;22411;53.016;18.632;2023-05-03T13:34:39;101763.81;;;16.14;33.88
36380;BME280;22411;53.016;18.632;2023-05-03T13:37:24;101768.66;;;16.32;33.22
36380;BME280;22411;53.016;18.632;2023-05-03T13:40:09;101765.63;;;17.53;32.19
36380;BME280;22411;53.016;18.632;2023-05-03T13:42:55;101764.91;;;17.96;32.11
36380;BME280;22411;53.016;18.632;2023-05-03T13:45:40;101764.84;;;18.50;31.72
36380;BME280;22411;53.016;18.632;2023-05-03T13:48:24;101767.91;;;18.67;31.72
36380;BME280;22411;53.016;18.632;2023-05-03T13:51:10;101762.53;;;18.36;31.47
36380;BME280;22411;53.016;18.632;2023-05-03T13:53:54;101764.44;;;18.34;30.74
36380;BME280;22411;53.016;18.632;2023-05-03T13:56:39;101757.63;;;18.75;30.10
36380;BME280;22411;53.016;18.632;2023-05-03T13:59:25;101754.09;;;19.68;29.32
36380;BME280;22411;53.016;18.632;2023-05-03T14:02:09;101752.81;;;20.80;29.61
36380;BME280;22411;53.016;18.632;2023-05-03T14:04:54;101753.81;;;20.30;26.72
36380;BME280;22411;53.016;18.632;2023-05-03T14:07:39;101753.56;;;19.43;28.15
36380;BME280;22411;53.016;18.632;2023-05-03T14:10:38;101753.13;;;18.87;28.24
36380;BME280;22411;53.016;18.632;2023-05-03T14:13:23;101751.03;;;18.48;29.41
36380;BME280;22411;53.016;18.632;2023-05-03T14:16:14;101747.44;;;18.49;31.99
36380;BME280;22411;53.016;18.632;2023-05-03T14:18:59;101748.91;;;18.10;31.80
36380;BME280;22411;53.016;18.632;2023-05-03T14:21:44;101749.09;;;17.75;33.32
36380;BME280;22411;53.016;18.632;2023-05-03T14:24:32;101757.50;;;17.11;33.71
36380;BME280;22411;53.016;18.632;2023-05-03T14:27:16;101752.00;;;16.33;35.22
36380;BME280;22411;53.016;18.632;2023-05-03T14:30:06;101754.50;;;16.34;35.76